createdAt,value
2023-04-05T00:01:12.210Z,55.40
2023-04-05T00:06:16.714Z,56.36
2023-04-05T00:11:18.753Z,57.28
2023-04-05T00:16:20.904Z,57.44
2023-04-05T00:21:23.794Z,57.77
2023-04-05T00:26:26.101Z,58.42
2023-04-05T00:31:31.606Z,58.88
2023-04-05T00:36:33.328Z,58.84
2023-04-05T00:41:36.429Z,57.67
2023-04-05T00:46:38.242Z,60.32
2023-04-05T00:51:40.466Z,57.92
2023-04-05T00:56:42.217Z,57.94
2023-04-05T01:01:44.186Z,59.27
2023-04-05T01:06:59.936Z,59.57
2023-04-05T01:12:06.895Z,59.51
2023-04-05T01:17:09.666Z,59.49
2023-04-05T01:22:26.402Z,60.00
2023-04-05T01:27:49.363Z,61.56
2023-04-05T01:32:59.938Z,60.52
2023-04-05T01:38:04.146Z,59.43
2023-04-05T01:43:16.171Z,59.75
2023-04-05T01:48:17.921Z,59.88
2023-04-05T01:53:19.696Z,60.05
2023-04-05T01:58:21.370Z,60.60
2023-04-05T02:03:24.233Z,62.31
2023-04-05T02:08:27.765Z,61.93
2023-04-05T02:13:29.419Z,62.74
2023-04-05T02:18:32.393Z,62.54
2023-04-05T02:23:35.204Z,64.14
2023-04-05T02:28:36.897Z,61.29
2023-04-05T02:33:39.720Z,61.62
2023-04-05T02:38:41.378Z,62.32
2023-04-05T02:43:43.154Z,63.49
2023-04-05T02:48:46.498Z,63.98
2023-04-05T02:53:50.107Z,64.23
2023-04-05T02:58:51.801Z,65.41
2023-04-05T03:03:58.750Z,65.03
2023-04-05T03:09:02.152Z,64.27
2023-04-05T03:14:04.008Z,64.85
2023-04-05T03:19:11.322Z,66.55
2023-04-05T03:24:18.217Z,68.94
2023-04-05T03:29:19.900Z,68.47
2023-04-05T03:34:22.979Z,68.13
2023-04-05T03:39:25.431Z,67.98
2023-04-05T03:44:27.374Z,67.40
2023-04-05T03:49:29.387Z,67.64
2023-04-05T03:54:31.136Z,64.43
2023-04-05T03:59:35.877Z,65.97
2023-04-05T04:04:39.939Z,66.14
2023-04-05T04:09:41.774Z,66.30
2023-04-05T04:14:45.753Z,66.41
2023-04-05T04:20:09.178Z,65.99
2023-04-05T04:25:46.242Z,65.90
2023-04-05T04:31:21.515Z,65.34
2023-04-05T04:36:36.339Z,64.51
2023-04-05T04:41:54.948Z,66.23
2023-04-05T04:47:21.884Z,66.58
2023-04-05T04:52:40.767Z,66.96
2023-04-05T04:57:43.101Z,66.77
2023-04-05T05:02:45.013Z,65.69
2023-04-05T05:07:50.653Z,62.20
2023-04-05T05:12:53.161Z,61.87
2023-04-05T05:17:58.451Z,62.29
2023-04-05T05:23:05.574Z,63.39
2023-04-05T05:28:07.351Z,65.17
2023-04-05T05:33:09.205Z,61.61
2023-04-05T05:38:13.716Z,63.55
2023-04-05T05:43:16.015Z,61.59
2023-04-05T05:48:17.896Z,60.32
2023-04-05T05:53:19.867Z,61.52
2023-04-05T05:58:21.768Z,62.06
2023-04-05T06:03:23.923Z,60.91
2023-04-05T06:08:29.766Z,56.87
2023-04-05T06:13:31.672Z,54.29
2023-04-05T06:18:33.380Z,53.46
2023-04-05T06:23:35.400Z,54.01
2023-04-05T06:28:37.352Z,51.58
2023-04-05T06:33:39.288Z,50.82
2023-04-05T06:38:41.198Z,51.89
2023-04-05T06:43:43.415Z,51.85
2023-04-05T06:48:48.122Z,52.75
2023-04-05T06:53:50.319Z,52.90
2023-04-05T06:58:52.422Z,53.71
2023-04-05T07:03:55.522Z,54.01
2023-04-05T07:08:58.175Z,53.86
2023-04-05T07:14:00.876Z,54.19
2023-04-05T07:19:02.723Z,54.61
2023-04-05T07:24:04.898Z,54.14
2023-04-05T07:29:08.584Z,55.44
2023-04-05T07:34:10.542Z,54.65
2023-04-05T07:39:12.414Z,54.76
2023-04-05T07:44:14.258Z,54.94
2023-04-05T07:49:16.324Z,55.89
2023-04-05T07:54:18.130Z,54.26
2023-04-05T07:59:19.821Z,54.23
2023-04-05T08:04:22.577Z,53.75
2023-04-05T08:09:24.240Z,53.91
2023-04-05T08:14:25.968Z,50.48
2023-04-05T08:19:27.835Z,50.17
2023-04-05T08:24:29.508Z,49.08
2023-04-05T08:29:31.469Z,48.89
2023-04-05T08:34:33.198Z,46.52
2023-04-05T08:39:36.057Z,44.71
2023-04-05T08:44:39.678Z,44.84
2023-04-05T08:49:45.075Z,45.09
2023-04-05T08:54:47.374Z,45.29
2023-04-05T08:59:50.353Z,44.98
2023-04-05T09:04:53.504Z,42.57
2023-04-05T09:09:59.288Z,45.12
2023-04-05T09:15:01.886Z,41.67
2023-04-05T09:20:03.659Z,42.69
2023-04-05T09:25:05.710Z,41.16
2023-04-05T09:30:21.550Z,41.83
2023-04-05T09:35:25.893Z,41.53
2023-04-05T09:40:46.586Z,41.97
2023-04-05T09:45:54.139Z,43.37
2023-04-05T09:51:12.702Z,45.67
2023-04-05T09:56:14.963Z,44.14
2023-04-05T10:01:17.563Z,45.41
2023-04-05T10:06:19.707Z,45.47
2023-04-05T10:11:23.360Z,45.71
2023-04-05T10:16:28.394Z,44.21
2023-04-05T10:21:32.491Z,43.79
2023-04-05T10:26:54.854Z,42.17
2023-04-05T10:32:26.508Z,42.75
2023-04-05T10:37:42.274Z,43.46
2023-04-05T10:42:44.255Z,43.72
2023-04-05T10:47:59.931Z,43.05
2023-04-05T10:53:03.207Z,41.50
2023-04-05T10:58:05.646Z,41.05
2023-04-05T11:03:07.784Z,42.06
2023-04-05T11:08:12.614Z,42.32
2023-04-05T11:13:14.448Z,40.21
2023-04-05T11:18:16.099Z,40.41
2023-04-05T11:23:20.686Z,40.43
2023-04-05T11:28:31.999Z,39.43
2023-04-05T11:33:57.190Z,39.83
2023-04-05T11:39:22.620Z,41.73
2023-04-05T11:44:24.987Z,41.92
2023-04-05T11:49:27.036Z,40.41
2023-04-05T11:54:33.470Z,40.40
2023-04-05T11:59:36.493Z,42.41
2023-04-05T12:04:39.144Z,44.12
2023-04-05T12:10:13.854Z,46.26
2023-04-05T12:15:18.653Z,47.59
2023-04-05T12:20:24.551Z,45.34
2023-04-05T12:25:26.612Z,45.07
2023-04-05T12:30:28.383Z,47.11
2023-04-05T12:35:34.909Z,47.57
2023-04-05T12:40:37.704Z,45.49
2023-04-05T12:45:43.698Z,45.67
2023-04-05T12:50:48.324Z,44.24
2023-04-05T12:55:52.818Z,43.88
2023-04-05T13:00:54.705Z,44.95
2023-04-05T13:05:56.422Z,41.86
2023-04-05T13:10:58.466Z,41.81
2023-04-05T13:16:00.369Z,41.03
2023-04-05T13:21:07.656Z,43.45
2023-04-05T13:26:09.422Z,41.74
2023-04-05T13:31:12.954Z,40.49
2023-04-05T13:36:16.449Z,41.29
2023-04-05T13:41:18.306Z,40.17
2023-04-05T13:46:20.149Z,40.10
2023-04-05T13:51:22.108Z,41.00
2023-04-05T13:56:24.106Z,44.07
2023-04-05T14:01:26.071Z,48.76
2023-04-05T14:06:28.324Z,51.36
2023-04-05T14:11:30.377Z,51.58
2023-04-05T14:16:32.444Z,50.38
2023-04-05T14:21:34.785Z,47.15
2023-04-05T14:26:37.039Z,46.03
2023-04-05T14:31:39.259Z,42.94
2023-04-05T14:36:41.468Z,44.16
2023-04-05T14:41:44.215Z,42.48
2023-04-05T14:46:47.773Z,45.59
2023-04-05T14:51:50.945Z,46.02
2023-04-05T14:56:53.655Z,44.62
2023-04-05T15:01:55.720Z,44.05
2023-04-05T15:06:57.835Z,43.85
2023-04-05T15:11:59.939Z,44.13
2023-04-05T15:17:02.068Z,43.13
2023-04-05T15:22:04.545Z,43.22
2023-04-05T15:27:06.645Z,43.77
2023-04-05T15:32:08.792Z,45.44
2023-04-05T15:37:10.986Z,45.88
2023-04-05T15:42:13.014Z,44.13
2023-04-05T15:47:15.165Z,44.88
2023-04-05T15:52:17.454Z,42.92
2023-04-05T15:57:20.416Z,44.87
2023-04-05T16:02:22.739Z,43.51
2023-04-05T16:07:24.640Z,44.22
2023-04-05T16:12:26.442Z,43.41
2023-04-05T16:17:28.435Z,42.20
2023-04-05T16:22:30.909Z,43.98
2023-04-05T16:27:33.761Z,44.25
2023-04-05T16:32:35.852Z,45.58
2023-04-05T16:37:38.896Z,45.46
2023-04-05T16:42:41.009Z,44.34
2023-04-05T16:47:43.550Z,44.05
2023-04-05T16:52:45.766Z,44.20
2023-04-05T16:57:47.699Z,42.56
2023-04-05T17:02:50.019Z,43.71
2023-04-05T17:07:53.140Z,43.91
2023-04-05T17:12:54.946Z,43.08
2023-04-05T17:17:56.804Z,44.47
2023-04-05T17:22:59.576Z,44.49
2023-04-05T17:28:01.373Z,45.32
2023-04-05T17:33:03.333Z,45.70
2023-04-05T17:38:05.703Z,45.86
2023-04-05T17:43:07.529Z,47.15
2023-04-05T17:48:09.629Z,46.85
2023-04-05T17:53:12.464Z,45.45
2023-04-05T17:58:14.443Z,48.14
2023-04-05T18:03:17.875Z,48.74
2023-04-05T18:08:20.403Z,49.03
2023-04-05T18:13:22.173Z,48.97
2023-04-05T18:18:24.762Z,50.44
2023-04-05T18:23:27.198Z,50.42
2023-04-05T18:28:28.976Z,50.78
2023-04-05T18:33:31.010Z,50.69
2023-04-05T18:38:33.016Z,50.44
2023-04-05T18:43:34.856Z,50.87
2023-04-05T18:48:38.948Z,52.31
2023-04-05T18:53:40.963Z,52.54
2023-04-05T18:58:43.091Z,52.88
2023-04-05T19:03:45.528Z,52.82
2023-04-05T19:08:48.205Z,52.84
2023-04-05T19:13:50.687Z,53.37
2023-04-05T19:18:53.588Z,53.14
2023-04-05T19:23:56.156Z,54.03
2023-04-05T19:28:59.639Z,53.94
2023-04-05T19:34:01.787Z,54.98
2023-04-05T19:39:05.035Z,56.00
2023-04-05T19:44:14.187Z,55.71
2023-04-05T19:49:32.267Z,56.51
2023-04-05T19:54:35.593Z,56.09
2023-04-05T19:59:37.567Z,57.81
2023-04-05T20:04:39.996Z,58.76
2023-04-05T20:09:41.888Z,58.63
2023-04-05T20:14:48.830Z,59.67
2023-04-05T20:19:59.987Z,59.99
2023-04-05T20:25:31.704Z,58.39
2023-04-05T20:30:33.654Z,58.37
2023-04-05T20:35:36.806Z,59.14
2023-04-05T20:40:38.585Z,59.98
2023-04-05T20:45:40.431Z,60.62
2023-04-05T20:50:42.653Z,61.27
2023-04-05T20:55:44.351Z,60.79
2023-04-05T21:00:46.156Z,61.90
2023-04-05T21:05:47.947Z,62.20
2023-04-05T21:10:49.811Z,61.62
2023-04-05T21:15:55.871Z,61.79
2023-04-05T21:20:57.692Z,63.47
2023-04-05T21:25:59.495Z,64.55
2023-04-05T21:31:01.570Z,66.16
2023-04-05T21:36:03.605Z,66.07
2023-04-05T21:41:05.460Z,66.71
2023-04-05T21:46:07.278Z,66.82
2023-04-05T21:51:09.132Z,67.28
2023-04-05T21:56:11.253Z,66.75
2023-04-05T22:01:13.618Z,66.68
2023-04-05T22:06:15.920Z,66.75
2023-04-05T22:11:17.688Z,67.21
2023-04-05T22:16:19.892Z,69.00
2023-04-05T22:21:21.908Z,70.16
2023-04-05T22:26:23.686Z,69.42
2023-04-05T22:31:25.457Z,70.64
2023-04-05T22:36:27.469Z,71.29
2023-04-05T22:41:29.239Z,70.97
2023-04-05T22:46:31.150Z,71.99
2023-04-05T22:51:33.027Z,73.00
2023-04-05T22:56:34.820Z,74.44
2023-04-05T23:01:36.624Z,75.15
2023-04-05T23:06:38.422Z,75.85
2023-04-05T23:11:40.504Z,75.93
2023-04-05T23:16:42.289Z,76.59
2023-04-05T23:21:44.074Z,76.66
2023-04-05T23:26:46.174Z,77.40
2023-04-05T23:31:53.218Z,77.42
2023-04-05T23:36:55.517Z,77.29
2023-04-05T23:41:57.651Z,77.91
2023-04-05T23:47:00.781Z,78.48
2023-04-05T23:52:02.637Z,79.68
2023-04-05T23:57:04.519Z,79.66
